Time;durP1;ratioP1;P1;durP2;ratioP2;P2;SDS_P1;SDS_P2;PMS_P1;PMS_P2;Temp;Humidity;BMP_temperature;BMP_pressure;BME280_temperature;BME280_humidity;BME280_pressure;Samples;Min_cycle;Max_cycle;Signal;HPM_P1;HPM_P2
2023/01/18 00:01:00;;;;;;;;;;;3.30;88.40;;;-151.14;100.00;62537.16;5015886;28;19921;-88
2023/01/18 00:03:30;;;;;;;;;;;3.30;88.30;;;-151.14;100.00;62537.16;5032533;28;19928;-88
2023/01/18 00:06:00;;;;;;;;;;;3.30;89.10;;;-151.14;100.00;62537.16;5049038;28;19928;-87
2023/01/18 00:08:28;;;;;;;;;;;3.30;88.30;;;-151.14;100.00;62537.16;5032921;28;19943;-89
2023/01/18 00:11:02;;;;;;;;;;;3.30;88.30;;;-151.14;100.00;62537.16;5015857;28;19929;-88
2023/01/18 00:13:30;;;;;;;;;;;3.30;88.40;;;-151.14;100.00;62537.16;5016392;28;20235;-89
2023/01/18 00:16:02;;;;;;;;;;;3.30;88.30;;;-151.14;100.00;62537.16;5015664;28;20132;-89
2023/01/18 00:18:30;;;;;;;;;;;3.30;88.30;;;18.12;100.00;62537.16;5032520;28;19927;-89
2023/01/18 00:21:01;;;;;;;;;;;3.30;88.30;;;-151.14;100.00;62537.16;5032362;28;20116;-88
2023/01/18 00:23:29;;;;;;;;;;;3.30;88.30;;;-151.14;100.00;62537.16;5049389;28;19935;-89
2023/01/18 00:26:00;;;;;;;;;;;3.30;88.30;;;-151.14;100.00;62537.16;5015087;28;20235;-89
2023/01/18 00:28:28;;;;;;;;;;;3.30;88.30;;;-151.14;100.00;62537.16;5032512;28;19921;-89
2023/01/18 00:30:56;;;;;;;;;;;3.30;88.40;;;-151.14;100.00;62537.16;5015946;28;19922;-89
2023/01/18 00:33:24;;;;;;;;;;;3.30;88.30;;;-151.14;100.00;62537.16;5049096;28;19928;-89
2023/01/18 00:35:56;;;;;;;;;;;3.30;88.30;;;-151.14;100.00;62537.16;5031705;28;19921;-89
2023/01/18 00:38:25;;;;;;;;;;;3.30;88.30;;;-151.14;100.00;62537.16;5048755;28;19929;-88
2023/01/18 00:40:53;;;;;;;;;;;3.30;88.40;;;-151.14;100.00;62537.16;5048566;28;19921;-89
2023/01/18 00:43:38;;;;;;;;;;;3.30;88.30;;;-151.14;100.00;62537.16;5032237;28;19921;-89
2023/01/18 00:46:06;;;;;;;;;;;3.30;88.30;;;-151.14;100.00;62537.16;5031585;28;19927;-89
2023/01/18 00:48:34;;;;;;;;;;;3.30;88.30;;;1.96;100.00;62537.16;5032142;28;19921;-88
2023/01/18 00:51:02;;;;;;;;;;;3.30;88.40;;;-151.14;100.00;62537.16;5015559;28;19921;-89
2023/01/18 00:53:31;;;;;;;;;;;3.30;88.30;;;-151.14;100.00;62537.16;5032171;28;19921;-89
2023/01/18 00:55:59;;;;;;;;;;;3.30;88.40;;;-151.14;100.00;62537.16;5031207;28;20239;-89
2023/01/18 00:58:29;;;;;;;;;;;3.30;88.40;;;-151.14;100.00;62537.16;5031784;28;19925;-89
2023/01/18 01:00:57;;;;;;;;;;;3.30;88.40;;;-151.14;100.00;62537.16;5015256;28;19921;-88
2023/01/18 01:03:25;;;;;;;;;;;3.30;88.40;;;-151.14;100.00;62537.16;5015547;28;20235;-89
2023/01/18 01:08:39;;;;;;;;;;;3.30;88.40;;;-151.14;100.00;62537.16;5048509;28;20205;-90
2023/01/18 01:11:09;;;;;;;;;;;3.30;88.30;;;-151.14;100.00;62537.16;5015098;28;19935;-89
2023/01/18 01:27:26;;;;;;;;;;;3.30;88.40;;;-151.14;100.00;62537.16;5030781;28;19921;-89
2023/01/18 01:29:53;;;;;;;;;;;3.30;88.30;;;-151.14;100.00;62537.16;5027819;28;19943;-89
2023/01/18 01:32:21;;;;;;;;;;;3.30;88.30;;;-151.14;100.00;62537.16;5051153;28;20116;-89
2023/01/18 01:34:49;;;;;;;;;;;3.30;88.30;;;-151.14;100.00;62537.16;5051056;28;19927;-88
2023/01/18 01:37:17;;;;;;;;;;;3.30;88.30;;;-151.14;100.00;62537.16;5050484;28;19920;-89
2023/01/18 01:39:47;;;;;;;;;;;3.30;88.30;;;18.12;100.00;62537.16;5051018;28;20216;-89
2023/01/18 01:42:15;;;;;;;;;;;3.30;88.40;;;-151.14;100.00;62537.16;5067867;28;19928;-88
2023/01/18 01:44:45;;;;;;;;;;;3.30;88.30;;;1.98;100.00;62537.16;5041629;28;19921;-89
2023/01/18 01:47:16;;;;;;;;;;;3.30;88.30;;;-151.14;100.00;62537.16;5030692;28;19921;-89
2023/01/18 01:49:45;;;;;;;;;;;3.30;88.30;;;-151.14;100.00;62537.16;5014783;28;19921;-89
2023/01/18 01:52:15;;;;;;;;;;;3.30;88.30;;;-151.14;100.00;62537.16;5014400;28;19925;-88
2023/01/18 01:54:44;;;;;;;;;;;3.30;88.40;;;-151.14;100.00;62537.16;5014822;28;19921;-87
2023/01/18 01:57:15;;;;;;;;;;;3.30;88.30;;;-151.14;100.00;62537.16;5031038;28;20205;-90
2023/01/18 01:59:45;;;;;;;;;;;3.30;88.40;;;-151.14;100.00;62537.16;5030983;28;19921;-89
2023/01/18 02:02:13;;;;;;;;;;;3.30;88.30;;;-151.14;100.00;62537.16;5014465;28;20208;-88
2023/01/18 02:04:43;;;;;;;;;;;3.30;88.30;;;187.61;100.00;62537.16;5014272;28;19927;-89
2023/01/18 02:07:11;;;;;;;;;;;3.30;88.30;;;-151.14;100.00;62537.16;5013801;28;19921;-88
2023/01/18 02:09:38;;;;;;;;;;;3.30;88.30;;;-151.14;100.00;62537.16;5030968;28;19921;-88
2023/01/18 02:12:06;;;;;;;;;;;3.30;88.40;;;-151.14;100.00;62537.16;5014396;28;19921;-88
2023/01/18 02:14:36;;;;;;;;;;;3.30;88.30;;;-151.14;100.00;62537.16;5031058;28;19928;-89
2023/01/18 02:17:14;;;;;;;;;;;3.30;88.40;;;-151.14;100.00;62537.16;5030886;28;20228;-89
2023/01/18 02:19:54;;;;;;;;;;;3.30;88.40;;;-151.14;100.00;62537.16;5033090;28;19927;-89
2023/01/18 02:22:31;;;;;;;;;;;3.30;88.40;;;-151.14;100.00;62537.16;5034287;28;19921;-89
2023/01/18 02:25:33;;;;;;;;;;;3.30;88.40;;;-151.14;100.00;62537.16;5034265;28;19921;-87
2023/01/18 02:28:09;;;;;;;;;;;3.30;88.40;;;-151.14;100.00;62537.16;5034098;28;19921;-89
2023/01/18 02:30:39;;;;;;;;;;;3.30;88.40;;;-151.14;100.00;62537.16;5018049;28;19943;-89
2023/01/18 02:33:09;;;;;;;;;;;3.30;88.40;;;-151.14;100.00;62537.16;5017762;28;19922;-88
2023/01/18 02:35:43;;;;;;;;;;;3.30;88.40;;;-151.14;100.00;62537.16;5017320;28;20208;-88
2023/01/18 02:38:13;;;;;;;;;;;3.30;88.40;;;-151.14;100.00;62537.16;5017560;28;19921;-89
2023/01/18 02:40:49;;;;;;;;;;;3.30;88.40;;;-151.14;100.00;62537.16;5017403;28;19927;-89
2023/01/18 02:48:49;;;;;;;;;;;3.30;88.40;;;-151.14;100.00;62537.16;5017622;28;19943;-88
2023/01/18 02:51:17;;;;;;;;;;;3.30;88.40;;;-151.14;100.00;62537.16;5057598;28;19921;-88
2023/01/18 02:53:45;;;;;;;;;;;3.30;88.40;;;-151.14;100.00;62537.16;5070395;28;19927;-89
2023/01/18 02:56:14;;;;;;;;;;;3.30;88.40;;;-151.14;100.00;62537.16;5069885;28;19943;-89
2023/01/18 02:58:45;;;;;;;;;;;3.30;88.30;;;-151.14;100.00;62537.16;5053686;28;20216;-88
2023/01/18 03:01:15;;;;;;;;;;;3.30;88.30;;;-151.14;100.00;62537.16;5053475;28;19942;-89
2023/01/18 03:03:44;;;;;;;;;;;3.30;88.40;;;-151.14;100.00;62537.16;5037001;28;19921;-89
2023/01/18 03:06:12;;;;;;;;;;;3.30;88.30;;;-151.14;100.00;62537.16;5052695;28;19927;-89
2023/01/18 03:08:41;;;;;;;;;;;3.30;88.40;;;-151.14;100.00;62537.16;5053137;28;19924;-88
2023/01/18 03:11:11;;;;;;;;;;;3.30;88.40;;;18.10;100.00;62537.16;5036805;28;19921;-88
2023/01/18 03:13:48;;;;;;;;;;;3.30;88.40;;;-151.14;100.00;62537.16;5053349;28;20293;-89
2023/01/18 03:16:19;;;;;;;;;;;3.30;88.40;;;1.99;100.00;62537.16;5052072;28;19921;-88
2023/01/18 03:19:00;;;;;;;;;;;3.30;88.40;;;-151.14;100.00;62537.16;5035959;28;19925;-88
2023/01/18 03:21:38;;;;;;;;;;;3.30;88.40;;;-151.14;100.00;62537.16;5045427;28;19935;-89
2023/01/18 03:24:06;;;;;;;;;;;3.30;88.40;;;1.98;100.00;62537.16;5053142;28;19927;-89
2023/01/18 03:26:36;;;;;;;;;;;3.30;88.40;;;-151.14;100.00;62537.16;5052484;28;19921;-88
2023/01/18 03:34:39;;;;;;;;;;;3.30;88.40;;;-151.14;100.00;62537.16;5016928;28;19921;-89
2023/01/18 03:37:08;;;;;;;;;;;3.30;88.40;;;-151.14;100.00;62537.16;5032656;28;19921;-88
2023/01/18 03:39:39;;;;;;;;;;;3.30;88.40;;;-151.14;100.00;62537.16;5016971;28;19921;-89
2023/01/18 03:42:09;;;;;;;;;;;3.30;88.50;;;18.08;100.00;62537.16;5039654;28;19921;-89
2023/01/18 03:44:39;;;;;;;;;;;3.30;88.40;;;-151.14;100.00;62537.16;5052879;28;19922;-89
2023/01/18 03:47:07;;;;;;;;;;;3.30;88.40;;;-151.14;100.00;62537.16;5051856;28;19935;-90
2023/01/18 03:49:35;;;;;;;;;;;3.30;88.40;;;1.99;100.00;62537.16;5052682;28;20093;-89
2023/01/18 03:52:16;;;;;;;;;;;3.30;88.40;;;-151.14;100.00;62537.16;5069470;28;19943;-88
2023/01/18 03:54:49;;;;;;;;;;;3.30;88.40;;;-151.14;100.00;62537.16;5052849;28;19921;-89
2023/01/18 03:57:23;;;;;;;;;;;3.30;88.40;;;-151.14;100.00;62537.16;5042554;28;19927;-89
2023/01/18 03:59:52;;;;;;;;;;;3.30;88.30;;;-151.14;100.00;62537.16;5052766;28;19927;-88
2023/01/18 04:02:20;;;;;;;;;;;3.30;88.30;;;-151.14;100.00;62537.16;5052370;28;19921;-89
2023/01/18 04:04:48;;;;;;;;;;;3.30;88.30;;;-151.14;100.00;62537.16;5052627;28;19927;-88
2023/01/18 04:07:16;;;;;;;;;;;3.30;88.30;;;2.01;100.00;62537.16;5051609;28;19927;-89
2023/01/18 04:09:44;;;;;;;;;;;3.30;88.30;;;-151.14;100.00;62537.16;5052445;28;20123;-89
2023/01/18 04:12:12;;;;;;;;;;;3.30;88.40;;;-151.14;100.00;62537.16;5059245;28;20315;-89
2023/01/18 04:14:40;;;;;;;;;;;3.30;88.40;;;-151.14;100.00;62537.16;5016212;28;19927;-89
2023/01/18 04:17:10;;;;;;;;;;;3.30;88.40;;;1.98;100.00;62537.16;5015453;28;19922;-89
2023/01/18 04:19:39;;;;;;;;;;;3.40;88.40;;;-151.14;100.00;62537.16;5048884;28;19927;-88
2023/01/18 04:22:07;;;;;;;;;;;3.30;88.40;;;18.12;100.00;62537.16;5016100;28;19921;-89
2023/01/18 04:24:35;;;;;;;;;;;3.30;88.40;;;-151.14;100.00;62537.16;5032204;28;20132;-89
2023/01/18 04:27:03;;;;;;;;;;;3.30;88.40;;;-151.14;100.00;62537.16;5015503;28;20098;-89
2023/01/18 04:29:31;;;;;;;;;;;3.30;88.30;;;2.01;100.00;62537.16;5032433;28;19921;-89
2023/01/18 04:31:59;;;;;;;;;;;3.40;88.30;;;-151.14;100.00;62537.16;5021136;28;19927;-89
2023/01/18 04:34:28;;;;;;;;;;;3.40;88.40;;;-151.14;100.00;62537.16;5052900;28;20368;-88
2023/01/18 04:36:56;;;;;;;;;;;3.30;88.30;;;-151.14;100.00;62537.16;5034824;28;19942;-88
2023/01/18 04:39:24;;;;;;;;;;;3.40;88.30;;;18.12;100.00;62537.16;5035157;28;19921;-88
2023/01/18 04:41:52;;;;;;;;;;;3.40;88.30;;;-151.14;100.00;62537.16;5051478;28;19921;-89
2023/01/18 04:44:20;;;;;;;;;;;3.40;88.30;;;-151.14;100.00;62537.16;5051827;28;19920;-88
2023/01/18 04:46:48;;;;;;;;;;;3.30;88.30;;;-151.14;100.00;62537.16;5051375;28;19921;-89
2023/01/18 04:49:16;;;;;;;;;;;3.40;88.30;;;-151.14;100.00;62537.16;5051699;28;19921;-89
2023/01/18 04:51:46;;;;;;;;;;;3.40;88.30;;;2.01;100.00;62537.16;5051746;28;19920;-88
2023/01/18 04:54:15;;;;;;;;;;;3.40;88.40;;;-151.14;100.00;62537.16;5051718;28;19921;-89
2023/01/18 04:56:43;;;;;;;;;;;3.40;88.30;;;-151.14;100.00;62537.16;5052416;28;19927;-89
2023/01/18 04:59:13;;;;;;;;;;;3.40;88.30;;;-151.14;100.00;62537.16;5051550;28;19921;-88
2023/01/18 05:01:41;;;;;;;;;;;3.40;88.30;;;-151.14;100.00;62537.16;5068243;28;19921;-88
2023/01/18 05:04:09;;;;;;;;;;;3.30;88.30;;;2.00;100.00;62537.16;5067935;28;19921;-88
2023/01/18 05:06:37;;;;;;;;;;;3.40;88.30;;;-151.14;100.00;62537.16;5051024;28;19927;-89
2023/01/18 05:09:06;;;;;;;;;;;3.30;88.40;;;2.01;100.00;62537.16;5036827;28;19927;-88
2023/01/18 05:11:34;;;;;;;;;;;3.30;88.30;;;-151.14;100.00;62537.16;5034861;28;19920;-88
2023/01/18 05:14:02;;;;;;;;;;;3.40;88.30;;;-151.14;100.00;62537.16;5035033;28;20120;-89
2023/01/18 05:16:30;;;;;;;;;;;3.40;88.30;;;-151.14;100.00;62537.16;5034505;28;19925;-89
2023/01/18 05:18:58;;;;;;;;;;;3.40;88.30;;;-151.14;100.00;62537.16;5035012;28;19920;-89
2023/01/18 05:21:26;;;;;;;;;;;3.30;88.30;;;-151.14;100.00;62537.16;5067919;28;20111;-89
2023/01/18 05:23:54;;;;;;;;;;;3.30;88.30;;;-151.14;100.00;62537.16;5051001;28;19927;-88
2023/01/18 05:26:23;;;;;;;;;;;3.40;88.30;;;-151.14;100.00;62537.16;5050795;28;19921;-89
2023/01/18 05:28:56;;;;;;;;;;;3.40;88.30;;;2.03;100.00;62537.16;5051131;28;19924;-88
2023/01/18 05:31:24;;;;;;;;;;;3.40;88.30;;;-151.14;100.00;62537.16;5051167;28;19927;-89
2023/01/18 05:33:52;;;;;;;;;;;3.40;88.30;;;-151.14;100.00;62537.16;5051022;28;19927;-89
2023/01/18 05:36:20;;;;;;;;;;;3.30;88.30;;;-151.14;100.00;62537.16;5050797;28;20235;-89
2023/01/18 05:38:48;;;;;;;;;;;3.40;88.30;;;-151.14;100.00;62537.16;5051125;28;19943;-88
2023/01/18 05:41:16;;;;;;;;;;;3.30;88.30;;;-151.14;100.00;62537.16;5050830;28;20123;-89
2023/01/18 05:43:45;;;;;;;;;;;3.40;88.30;;;-151.14;100.00;62537.16;5050925;28;19928;-89
2023/01/18 05:46:14;;;;;;;;;;;3.40;88.30;;;2.01;100.00;62537.16;5050521;28;20228;-88
2023/01/18 05:48:42;;;;;;;;;;;3.30;88.30;;;-151.14;100.00;62537.16;5034709;28;19927;-89
2023/01/18 05:51:11;;;;;;;;;;;3.40;88.30;;;-151.14;100.00;62537.16;5050861;28;19927;-89
2023/01/18 05:53:40;;;;;;;;;;;3.40;88.30;;;2.02;100.00;62537.16;5049777;28;19950;-89
2023/01/18 05:56:08;;;;;;;;;;;3.40;88.30;;;2.01;100.00;62537.16;5050378;28;19921;-88
2023/01/18 05:58:37;;;;;;;;;;;3.40;88.30;;;2.02;100.00;62537.16;5060719;28;19921;-89
2023/01/18 06:01:07;;;;;;;;;;;3.40;88.30;;;-151.14;100.00;62537.16;5030871;28;19921;-88
2023/01/18 06:03:35;;;;;;;;;;;3.40;88.30;;;2.02;100.00;62537.16;5037101;28;19920;-89
2023/01/18 06:06:03;;;;;;;;;;;3.40;88.20;;;2.03;100.00;62537.16;5050248;28;19921;-89
2023/01/18 06:08:31;;;;;;;;;;;3.40;88.30;;;-151.14;100.00;62537.16;5050816;28;19920;-87
2023/01/18 06:10:59;;;;;;;;;;;3.40;88.20;;;-151.14;100.00;62537.16;5033731;28;19927;-88
2023/01/18 06:13:28;;;;;;;;;;;3.30;88.30;;;2.04;100.00;62537.16;5050292;28;19927;-87
2023/01/18 06:15:56;;;;;;;;;;;3.40;88.30;;;-151.14;100.00;62537.16;5050076;28;20212;-87
2023/01/18 06:18:27;;;;;;;;;;;3.40;88.30;;;-151.14;100.00;62537.16;5066714;28;20109;-88
2023/01/18 06:20:56;;;;;;;;;;;3.40;88.10;;;-151.14;100.00;62537.16;5050105;28;19920;-88
2023/01/18 06:23:24;;;;;;;;;;;3.40;88.10;;;-151.14;100.00;62537.16;5033395;28;19921;-88
2023/01/18 06:25:52;;;;;;;;;;;3.40;88.20;;;-151.14;100.00;62537.16;5050176;28;20285;-88
2023/01/18 06:28:21;;;;;;;;;;;3.40;88.10;;;-151.14;100.00;62537.16;5051206;28;19921;-87
2023/01/18 06:30:51;;;;;;;;;;;3.40;88.10;;;-151.14;100.00;62537.16;5049859;28;20209;-88
2023/01/18 06:33:19;;;;;;;;;;;3.40;88.10;;;-151.14;100.00;62537.16;5050148;28;19921;-88
2023/01/18 06:35:48;;;;;;;;;;;3.40;88.10;;;-151.14;100.00;62537.16;5030177;28;20117;-88
2023/01/18 06:38:16;;;;;;;;;;;3.40;88.00;;;-151.14;100.00;62537.16;5030044;28;19943;-88
2023/01/18 06:40:44;;;;;;;;;;;3.40;88.00;;;-151.14;100.00;62537.16;5030000;28;20216;-88
2023/01/18 06:43:13;;;;;;;;;;;3.40;88.00;;;-151.14;100.00;62537.16;5029974;28;19921;-88
2023/01/18 06:45:41;;;;;;;;;;;3.40;88.00;;;2.09;100.00;62537.16;5013551;28;19935;-88
2023/01/18 06:48:09;;;;;;;;;;;3.40;88.00;;;-151.14;100.00;62537.16;5030181;28;20093;-88
2023/01/18 06:50:37;;;;;;;;;;;3.40;88.00;;;-151.14;100.00;62537.16;5013616;28;19921;-88
2023/01/18 06:53:06;;;;;;;;;;;3.40;88.00;;;-151.14;100.00;62537.16;5030081;28;19921;-88
2023/01/18 06:55:34;;;;;;;;;;;3.40;88.00;;;-151.14;100.00;62537.16;5025550;28;19935;-88
2023/01/18 06:58:02;;;;;;;;;;;3.50;88.10;;;-151.14;100.00;62537.16;5029997;28;19921;-88
2023/01/18 07:00:30;;;;;;;;;;;3.50;88.10;;;-151.14;100.00;62537.16;5029809;28;19921;-87
2023/01/18 07:02:58;;;;;;;;;;;3.50;88.10;;;-151.14;100.00;62537.16;5029972;28;19921;-88
2023/01/18 07:05:26;;;;;;;;;;;3.50;88.00;;;-151.14;100.00;62537.16;5015478;28;19921;-87
2023/01/18 07:07:54;;;;;;;;;;;3.40;87.90;;;-151.14;100.00;62537.16;5034308;28;19928;-88
2023/01/18 07:10:23;;;;;;;;;;;3.50;88.00;;;-151.14;100.00;62537.16;5033284;28;19925;-88
2023/01/18 07:12:51;;;;;;;;;;;3.50;88.00;;;2.19;100.00;62537.16;5049864;28;19921;-87
2023/01/18 07:15:19;;;;;;;;;;;3.50;87.90;;;2.23;100.00;62537.16;5016608;28;20125;-88
2023/01/18 07:17:49;;;;;;;;;;;3.50;88.00;;;2.27;100.00;62537.16;5033153;28;20120;-88
2023/01/18 07:20:17;;;;;;;;;;;3.60;88.00;;;2.30;100.00;62537.16;5043482;28;19920;-88
2023/01/18 07:22:45;;;;;;;;;;;3.60;88.00;;;-151.14;100.00;62537.16;5052900;28;19927;-87
2023/01/18 07:25:17;;;;;;;;;;;3.70;88.80;;;2.37;100.00;62537.16;5052509;28;19928;-88
2023/01/18 07:27:47;;;;;;;;;;;3.70;87.80;;;-151.14;100.00;62537.16;5052556;28;19936;-87
2023/01/18 07:30:16;;;;;;;;;;;3.70;87.80;;;-151.14;100.00;62537.16;5052903;28;19920;-88
2023/01/18 07:32:47;;;;;;;;;;;3.80;87.70;;;2.46;100.00;62537.16;5052530;28;20124;-88
2023/01/18 07:35:16;;;;;;;;;;;3.80;87.50;;;-151.14;100.00;62537.16;5052558;28;19943;-88
2023/01/18 07:37:47;;;;;;;;;;;3.80;87.60;;;-151.14;100.00;62537.16;5052320;28;19920;-88
2023/01/18 07:40:15;;;;;;;;;;;3.80;87.40;;;2.45;100.00;62537.16;5045878;28;19921;-89
2023/01/18 07:42:43;;;;;;;;;;;3.80;87.40;;;2.43;100.00;62537.16;5032713;28;20094;-88
2023/01/18 07:45:13;;;;;;;;;;;3.80;87.30;;;-151.14;100.00;62537.16;5016134;28;19921;-88
2023/01/18 07:47:41;;;;;;;;;;;3.80;87.40;;;-151.14;100.00;62537.16;5016186;28;19927;-88
2023/01/18 07:50:10;;;;;;;;;;;3.80;87.20;;;-151.14;100.00;62537.16;5016269;28;19921;-89
2023/01/18 07:52:38;;;;;;;;;;;3.80;87.30;;;-151.14;100.00;62537.16;5016130;28;19921;-88
2023/01/18 07:55:07;;;;;;;;;;;3.80;87.30;;;2.43;100.00;62537.16;5032474;28;19928;-88
2023/01/18 07:57:35;;;;;;;;;;;3.80;87.40;;;2.42;100.00;62537.16;5049055;28;19927;-88
2023/01/18 08:00:03;;;;;;;;;;;3.80;87.20;;;-151.14;100.00;62537.16;5018319;28;19922;-88
2023/01/18 08:02:41;;;;;;;;;;;3.80;87.20;;;-151.14;100.00;62537.16;5053203;28;19947;-88
2023/01/18 08:05:10;;;;;;;;;;;3.80;87.30;;;2.39;100.00;62537.16;5049570;28;20220;-89
2023/01/18 08:07:38;;;;;;;;;;;3.70;87.20;;;2.40;100.00;62537.16;5015550;28;19922;-88
2023/01/18 08:10:06;;;;;;;;;;;3.70;87.30;;;-151.14;100.00;62537.16;5015898;28;19922;-88
2023/01/18 08:12:34;;;;;;;;;;;3.80;87.20;;;2.38;100.00;62537.16;5015757;28;20231;-88
2023/01/18 08:15:03;;;;;;;;;;;3.70;87.20;;;-151.14;100.00;62537.16;5032355;28;20141;-89
2023/01/18 08:17:31;;;;;;;;;;;3.70;87.20;;;-151.14;100.00;62537.16;5031101;28;20209;-87
2023/01/18 08:20:00;;;;;;;;;;;3.70;87.20;;;-151.14;100.00;62537.16;5015878;28;19922;-89
2023/01/18 08:22:28;;;;;;;;;;;3.70;87.20;;;-151.14;100.00;62537.16;5031795;28;19927;-88
2023/01/18 08:24:56;;;;;;;;;;;3.70;87.30;;;-151.14;100.00;62537.16;5015588;28;19921;-88
2023/01/18 08:27:24;;;;;;;;;;;3.70;87.30;;;2.38;100.00;62537.16;5015047;28;19921;-88
2023/01/18 08:29:52;;;;;;;;;;;3.70;87.30;;;-151.14;100.00;62537.16;5015768;28;19944;-88
2023/01/18 08:32:20;;;;;;;;;;;3.70;87.30;;;18.10;100.00;62537.16;5015564;28;20213;-89
2023/01/18 08:34:48;;;;;;;;;;;3.70;87.20;;;-151.14;100.00;62537.16;5033312;28;19921;-88
2023/01/18 08:37:17;;;;;;;;;;;3.70;87.30;;;-151.14;100.00;62537.16;5048135;28;19921;-88
2023/01/18 08:39:45;;;;;;;;;;;3.70;87.20;;;18.12;100.00;62537.16;5032106;28;19921;-89
2023/01/18 08:42:13;;;;;;;;;;;3.70;87.20;;;2.40;100.00;62537.16;5062749;28;19935;-88
2023/01/18 08:44:41;;;;;;;;;;;3.70;87.40;;;2.38;100.00;62537.16;5051819;28;19921;-88
2023/01/18 08:47:09;;;;;;;;;;;3.70;87.20;;;2.36;100.00;62537.16;5050722;28;19927;-88
2023/01/18 08:49:37;;;;;;;;;;;3.70;87.20;;;-151.14;100.00;62537.16;5051480;28;20238;-89
2023/01/18 08:52:05;;;;;;;;;;;3.70;87.20;;;-151.14;100.00;62537.16;5068001;28;19921;-89
2023/01/18 08:54:35;;;;;;;;;;;3.70;87.20;;;-151.14;100.00;62537.16;5051716;28;19927;-89
2023/01/18 08:57:03;;;;;;;;;;;3.70;87.40;;;-151.14;100.00;62537.16;5050971;28;20239;-88
2023/01/18 08:59:31;;;;;;;;;;;3.70;87.30;;;-151.14;100.00;62537.16;5051518;28;19921;-88
2023/01/18 09:01:58;;;;;;;;;;;3.70;87.30;;;-151.14;100.00;62537.16;5051277;28;19927;-89
2023/01/18 09:04:29;;;;;;;;;;;3.70;87.40;;;-151.14;100.00;62537.16;5051136;28;19921;-89
2023/01/18 09:06:57;;;;;;;;;;;3.70;87.40;;;-151.14;100.00;62537.16;5041531;28;19927;-87
2023/01/18 09:09:25;;;;;;;;;;;3.70;87.50;;;-151.14;100.00;62537.16;5031398;28;19927;-88
2023/01/18 09:11:55;;;;;;;;;;;3.70;87.40;;;2.34;100.00;62537.16;5014767;28;19921;-87
2023/01/18 09:14:23;;;;;;;;;;;3.70;87.40;;;2.36;100.00;62537.16;5014957;28;19921;-88
2023/01/18 09:16:51;;;;;;;;;;;3.70;87.40;;;2.34;100.00;62537.16;5014426;28;19921;-89
2023/01/18 09:19:19;;;;;;;;;;;3.70;87.50;;;2.35;100.00;62537.16;5031049;28;19928;-89
2023/01/18 09:21:48;;;;;;;;;;;3.70;87.40;;;-151.14;100.00;62537.16;5014634;28;19921;-88
2023/01/18 09:24:16;;;;;;;;;;;3.70;87.50;;;-151.14;100.00;62537.16;5014875;28;19921;-87
2023/01/18 09:26:45;;;;;;;;;;;3.70;88.40;;;-151.14;100.00;62537.16;5030910;28;19928;-89
2023/01/18 09:29:15;;;;;;;;;;;3.70;87.50;;;-151.14;100.00;62537.16;5031086;28;19928;-87
2023/01/18 09:31:43;;;;;;;;;;;3.70;87.50;;;-151.14;100.00;62537.16;5047756;28;19943;-89
2023/01/18 09:34:11;;;;;;;;;;;3.70;87.50;;;2.34;100.00;62537.16;5014960;28;20112;-88
2023/01/18 09:36:40;;;;;;;;;;;3.70;87.40;;;2.35;100.00;62537.16;5016765;28;19928;-89
2023/01/18 09:39:07;;;;;;;;;;;3.70;87.50;;;-151.14;100.00;62537.16;5050557;28;19920;-88
2023/01/18 09:41:36;;;;;;;;;;;3.70;87.50;;;;;;5050742;28;19921;-88
2023/01/18 09:44:06;;;;;;;;;;;3.70;87.40;;;-151.14;100.00;62537.16;5050747;28;19921;-89
2023/01/18 09:46:36;;;;;;;;;;;3.70;87.40;;;-151.14;100.00;62537.16;5033980;28;20128;-89
2023/01/18 09:49:06;;;;;;;;;;;3.70;87.50;;;-151.14;100.00;62537.16;5050498;28;19921;-89
2023/01/18 09:51:39;;;;;;;;;;;3.70;87.50;;;-151.14;100.00;62537.16;5050733;28;19924;-88
2023/01/18 09:54:11;;;;;;;;;;;3.80;87.60;;;-151.14;100.00;62537.16;5051604;28;19920;-88
2023/01/18 09:56:43;;;;;;;;;;;3.80;87.40;;;-151.14;100.00;62537.16;5050222;28;19927;-89
2023/01/18 09:59:17;;;;;;;;;;;3.70;87.30;;;-151.14;100.00;62537.16;5067412;28;20242;-88
2023/01/18 10:01:47;;;;;;;;;;;3.80;87.20;;;2.41;100.00;62537.16;5066866;28;19921;-88
2023/01/18 10:04:17;;;;;;;;;;;3.80;87.20;;;-151.14;100.00;62537.16;5030529;28;19921;-87
2023/01/18 10:06:47;;;;;;;;;;;3.80;87.10;;;-151.14;100.00;62537.16;5030142;28;19939;-89
2023/01/18 10:09:16;;;;;;;;;;;3.80;87.10;;;-151.14;100.00;62537.16;5033360;28;20231;-88
2023/01/18 10:11:47;;;;;;;;;;;3.80;87.20;;;-151.14;100.00;62537.16;5050060;28;19921;-88
2023/01/18 10:14:18;;;;;;;;;;;3.80;87.20;;;2.42;100.00;62537.16;5050351;28;19943;-88
2023/01/18 10:16:51;;;;;;;;;;;3.80;87.30;;;-151.14;100.00;62537.16;5049929;28;19921;-88
2023/01/18 10:19:21;;;;;;;;;;;3.70;87.20;;;-151.14;100.00;62537.16;5050320;28;19928;-88
2023/01/18 10:21:52;;;;;;;;;;;3.70;87.20;;;18.09;100.00;62537.16;5067057;28;20140;-88
2023/01/18 10:24:41;;;;;;;;;;;3.70;87.20;;;-151.14;100.00;62537.16;5066902;28;19927;-88
2023/01/18 10:27:38;;;;;;;;;;;3.70;87.20;;;-151.14;100.00;62537.16;5066726;28;19921;-88
2023/01/18 10:30:29;;;;;;;;;;;3.70;87.20;;;-151.14;100.00;62537.16;5050533;28;19921;-88
2023/01/18 10:32:59;;;;;;;;;;;3.70;87.30;;;-151.14;100.00;62537.16;5050120;28;19927;-88
2023/01/18 10:35:29;;;;;;;;;;;3.70;87.30;;;-151.14;100.00;62537.16;5049963;28;19921;-89
2023/01/18 10:37:58;;;;;;;;;;;3.70;87.30;;;-151.14;100.00;62537.16;5048000;28;19920;-88
2023/01/18 10:40:26;;;;;;;;;;;3.70;87.40;;;2.38;100.00;62537.16;5052316;28;19927;-87
2023/01/18 10:42:56;;;;;;;;;;;3.70;87.40;;;2.41;100.00;62537.16;5053403;28;19927;-87
2023/01/18 10:45:25;;;;;;;;;;;3.70;87.40;;;-151.14;100.00;62537.16;5053054;28;19920;-88
2023/01/18 10:47:53;;;;;;;;;;;3.70;87.50;;;-151.14;100.00;62537.16;5053288;28;19921;-88
2023/01/18 10:50:24;;;;;;;;;;;3.70;87.60;;;2.53;100.00;62537.16;5053481;28;19921;-88
2023/01/18 10:52:52;;;;;;;;;;;3.70;87.40;;;-151.14;100.00;62537.16;5053285;28;19943;-89
2023/01/18 10:55:20;;;;;;;;;;;3.70;87.50;;;2.37;100.00;62537.16;5052970;28;19920;-88
2023/01/18 10:57:48;;;;;;;;;;;3.70;87.50;;;2.37;100.00;62537.16;5036683;28;19921;-89
2023/01/18 11:00:21;;;;;;;;;;;3.70;87.50;;;2.36;100.00;62537.16;5070034;28;19920;-89
2023/01/18 11:02:50;;;;;;;;;;;3.70;87.60;;;2.39;100.00;62537.16;5036416;28;19936;-88
2023/01/18 11:05:32;;;;;;;;;;;3.70;87.60;;;-151.14;100.00;62537.16;5036184;28;19921;-89
2023/01/18 11:08:14;;;;;;;;;;;3.70;87.60;;;2.42;100.00;62537.16;5052708;28;19925;-88
2023/01/18 11:10:42;;;;;;;;;;;3.80;87.50;;;-151.14;100.00;62537.16;5036770;28;19921;-88
2023/01/18 11:13:26;;;;;;;;;;;3.80;87.50;;;-151.14;100.00;62537.16;5036380;28;19920;-88
2023/01/18 11:16:16;;;;;;;;;;;3.80;87.40;;;2.50;100.00;62537.16;5052591;28;19921;-88
2023/01/18 11:18:59;;;;;;;;;;;3.80;87.30;;;-151.14;100.00;62537.16;5052722;28;19921;-89
2023/01/18 11:21:32;;;;;;;;;;;3.90;87.40;;;-151.14;100.00;62537.16;5069614;28;19927;-88
2023/01/18 11:24:05;;;;;;;;;;;3.90;87.20;;;2.51;100.00;62537.16;5052835;28;20111;-88
2023/01/18 11:26:34;;;;;;;;;;;3.90;87.20;;;-151.14;100.00;62537.16;5052448;28;19921;-89
2023/01/18 11:29:03;;;;;;;;;;;3.90;87.20;;;2.52;100.00;62537.16;5036079;28;20217;-89
2023/01/18 11:31:33;;;;;;;;;;;3.90;87.10;;;-151.14;100.00;62537.16;5052690;28;19927;-89
2023/01/18 11:34:03;;;;;;;;;;;3.90;87.10;;;-151.14;100.00;62537.16;5052603;28;19927;-89
2023/01/18 11:36:37;;;;;;;;;;;3.90;87.20;;;-151.14;100.00;62537.16;5051982;28;19921;-88
2023/01/18 11:39:25;;;;;;;;;;;3.90;87.20;;;-151.14;100.00;62537.16;5052722;28;19921;-88
2023/01/18 11:42:12;;;;;;;;;;;3.90;87.20;;;-151.14;100.00;62537.16;5052608;28;19927;-88
2023/01/18 11:44:43;;;;;;;;;;;3.90;87.40;;;-151.14;100.00;62537.16;5035862;28;19927;-87
2023/01/18 11:47:12;;;;;;;;;;;3.90;87.40;;;187.61;100.00;62537.16;5053040;28;19921;-88